createdAt,value
2017-05-11T00:00:20.294Z,0
2017-05-11T00:01:34.023Z,0
2017-05-11T00:02:46.785Z,0
2017-05-11T00:03:59.258Z,0
2017-05-11T00:05:43.853Z,0
2017-05-11T00:06:57.631Z,0
2017-05-11T00:08:10.321Z,0
2017-05-11T00:09:24.170Z,0
2017-05-11T00:10:37.910Z,0
2017-05-11T00:11:50.469Z,0
2017-05-11T00:13:04.194Z,0
2017-05-11T00:14:18.179Z,0
2017-05-11T00:15:30.665Z,0
2017-05-11T00:16:44.398Z,0
2017-05-11T00:17:58.214Z,0
2017-05-11T00:19:12.149Z,0
2017-05-11T00:20:26.134Z,0
2017-05-11T00:21:40.034Z,0
2017-05-11T00:22:53.777Z,0
2017-05-11T00:24:06.610Z,0
2017-05-11T00:25:20.371Z,0
2017-05-11T00:26:34.141Z,0
2017-05-11T00:27:47.869Z,0
2017-05-11T00:29:01.609Z,0
2017-05-11T00:30:15.548Z,0
2017-05-11T00:31:29.266Z,0
2017-05-11T00:32:41.714Z,0
2017-05-11T00:33:52.869Z,0
2017-05-11T00:35:06.597Z,0
2017-05-11T00:36:20.517Z,0
2017-05-11T00:37:34.372Z,0
2017-05-11T00:38:46.813Z,0
2017-05-11T00:40:00.651Z,0
2017-05-11T00:41:13.339Z,0
2017-05-11T00:42:25.776Z,0
2017-05-11T00:43:36.956Z,0
2017-05-11T00:44:50.923Z,0
2017-05-11T00:46:04.644Z,0
2017-05-11T00:47:18.581Z,0
2017-05-11T00:48:32.336Z,0
2017-05-11T00:49:46.083Z,0
2017-05-11T00:50:59.820Z,0
2017-05-11T00:52:12.454Z,0
2017-05-11T00:53:26.182Z,0
2017-05-11T00:54:38.621Z,0
2017-05-11T00:55:52.384Z,0
2017-05-11T00:57:06.417Z,0
2017-05-11T00:58:20.402Z,0
2017-05-11T00:59:34.163Z,0
2017-05-11T01:00:47.879Z,0
2017-05-11T01:02:01.868Z,0
2017-05-11T01:03:15.857Z,0
2017-05-11T01:04:28.319Z,0
2017-05-11T01:05:40.835Z,0
2017-05-11T01:06:53.313Z,0
2017-05-11T01:08:05.746Z,0
2017-05-11T01:09:18.414Z,0
2017-05-11T01:10:32.184Z,0
2017-05-11T01:11:45.918Z,0
2017-05-11T01:12:59.664Z,0
2017-05-11T01:14:12.355Z,0
2017-05-11T01:15:24.941Z,0
2017-05-11T01:16:38.691Z,0
2017-05-11T01:17:52.423Z,0
2017-05-11T01:19:06.207Z,0
2017-05-11T01:20:20.461Z,0
2017-05-11T01:21:32.912Z,0
2017-05-11T01:22:46.876Z,0
2017-05-11T01:24:00.806Z,0
2017-05-11T01:25:14.728Z,0
2017-05-11T01:26:25.879Z,0
2017-05-11T01:27:39.598Z,0
2017-05-11T01:28:52.038Z,0
2017-05-11T01:30:05.747Z,0
2017-05-11T01:31:19.716Z,0
2017-05-11T01:32:33.498Z,0
2017-05-11T01:33:47.222Z,0
2017-05-11T01:34:59.662Z,0
2017-05-11T01:36:12.105Z,0
2017-05-11T01:37:26.047Z,0
2017-05-11T01:38:39.771Z,0
2017-05-11T01:39:52.215Z,0
2017-05-11T01:41:05.931Z,0
2017-05-11T01:42:17.290Z,0
2017-05-11T01:43:31.105Z,0
2017-05-11T01:44:45.054Z,0
2017-05-11T01:45:57.481Z,0
2017-05-11T01:47:11.414Z,0
2017-05-11T01:48:56.028Z,0
2017-05-11T01:50:09.774Z,0
2017-05-11T01:51:22.208Z,0
2017-05-11T01:52:36.254Z,0
2017-05-11T01:53:49.996Z,0
2017-05-11T01:55:03.927Z,0
2017-05-11T01:56:17.654Z,0
2017-05-11T01:57:30.285Z,0
2017-05-11T01:58:44.016Z,0
2017-05-11T01:59:57.761Z,0
2017-05-11T02:01:11.481Z,0
2017-05-11T02:02:25.205Z,0
2017-05-11T02:03:39.178Z,0
2017-05-11T02:04:51.643Z,0
2017-05-11T02:06:04.091Z,0
2017-05-11T02:07:17.821Z,0
2017-05-11T02:08:31.797Z,0
2017-05-11T02:09:45.989Z,0
2017-05-11T02:10:58.437Z,0
2017-05-11T02:12:12.169Z,0
2017-05-11T02:13:24.788Z,0
2017-05-11T02:14:37.455Z,0
2017-05-11T02:15:49.901Z,0
2017-05-11T02:17:02.417Z,0
2017-05-11T02:18:16.191Z,0
2017-05-11T02:19:29.919Z,0
2017-05-11T02:20:43.849Z,0
2017-05-11T02:21:57.573Z,0
2017-05-11T02:23:10.019Z,0
2017-05-11T02:24:23.753Z,0
2017-05-11T02:25:37.737Z,0
2017-05-11T02:26:51.467Z,0
2017-05-11T02:28:05.196Z,0
2017-05-11T02:29:18.966Z,0
2017-05-11T02:30:33.018Z,0
2017-05-11T02:31:46.891Z,0
2017-05-11T02:33:00.606Z,0
2017-05-11T02:34:14.323Z,0
2017-05-11T02:35:26.797Z,0
2017-05-11T02:36:40.861Z,0
2017-05-11T02:37:54.585Z,0
2017-05-11T02:39:07.041Z,0
2017-05-11T02:40:20.793Z,0
2017-05-11T02:41:33.222Z,0
2017-05-11T02:42:47.163Z,0
2017-05-11T02:43:59.609Z,0
2017-05-11T02:45:13.352Z,0
2017-05-11T02:46:58.221Z,0
2017-05-11T02:48:10.656Z,0
2017-05-11T02:49:23.318Z,0
2017-05-11T02:50:37.037Z,4
2017-05-11T02:51:50.824Z,4
2017-05-11T02:53:04.756Z,0
2017-05-11T02:54:18.707Z,4
2017-05-11T02:55:31.155Z,4
2017-05-11T02:56:44.921Z,8
2017-05-11T02:57:58.897Z,4
2017-05-11T02:59:12.686Z,8
2017-05-11T03:00:23.835Z,8
2017-05-11T03:01:36.273Z,8
2017-05-11T03:02:49.998Z,8
2017-05-11T03:04:02.672Z,12
2017-05-11T03:05:15.244Z,16
2017-05-11T03:06:29.192Z,20
2017-05-11T03:07:41.658Z,20
2017-05-11T03:08:54.094Z,24
2017-05-11T03:10:08.128Z,28
2017-05-11T03:11:21.856Z,36
2017-05-11T03:12:35.586Z,40
2017-05-11T03:13:48.024Z,48
2017-05-11T03:15:02.002Z,56
2017-05-11T03:16:15.982Z,64
2017-05-11T03:17:29.720Z,72
2017-05-11T03:18:43.458Z,80
2017-05-11T03:19:57.453Z,88
2017-05-11T03:21:11.200Z,100
2017-05-11T03:22:24.926Z,112
2017-05-11T03:23:38.666Z,124
2017-05-11T03:24:51.127Z,136
2017-05-11T03:26:05.063Z,148
2017-05-11T03:27:17.491Z,160
2017-05-11T03:28:31.226Z,176
2017-05-11T03:29:44.956Z,188
2017-05-11T03:30:58.894Z,208
2017-05-11T03:32:11.386Z,224
2017-05-11T03:33:25.376Z,244
2017-05-11T03:34:39.097Z,264
2017-05-11T03:35:52.807Z,284
2017-05-11T03:37:06.729Z,304
2017-05-11T03:38:19.186Z,328
2017-05-11T03:39:31.757Z,348
2017-05-11T03:40:45.533Z,372
2017-05-11T03:41:59.263Z,396
2017-05-11T03:43:13.436Z,420
2017-05-11T03:44:27.171Z,448
2017-05-11T03:45:39.606Z,476
2017-05-11T03:46:53.347Z,504
2017-05-11T03:48:06.034Z,536
2017-05-11T03:49:19.780Z,568
2017-05-11T03:50:30.933Z,596
2017-05-11T03:51:44.650Z,624
2017-05-11T03:52:58.381Z,656
2017-05-11T03:54:12.340Z,688
2017-05-11T03:55:26.063Z,724
2017-05-11T03:56:38.493Z,760
2017-05-11T03:57:50.943Z,796
2017-05-11T03:59:05.267Z,836
2017-05-11T04:00:17.711Z,876
2017-05-11T04:01:30.143Z,916
2017-05-11T04:02:43.866Z,960
2017-05-11T04:03:57.591Z,1004
2017-05-11T04:05:11.557Z,1044
2017-05-11T04:06:25.277Z,1096
2017-05-11T04:07:39.005Z,1148
2017-05-11T04:08:52.809Z,1200
2017-05-11T04:10:06.794Z,1248
2017-05-11T04:11:20.536Z,1296
2017-05-11T04:12:32.974Z,1340
2017-05-11T04:13:46.746Z,1392
2017-05-11T04:15:00.746Z,1448
2017-05-11T04:16:14.466Z,1496
2017-05-11T04:17:26.896Z,1544
2017-05-11T04:18:40.642Z,1584
2017-05-11T04:19:54.366Z,1632
2017-05-11T04:21:07.041Z,1672
2017-05-11T04:22:20.776Z,1708
2017-05-11T04:23:34.615Z,1744
2017-05-11T04:24:48.333Z,1772
2017-05-11T04:26:02.286Z,1772
2017-05-11T04:27:14.724Z,1772
2017-05-11T04:28:28.640Z,1796
2017-05-11T04:29:42.367Z,1844
2017-05-11T04:30:53.549Z,1888
2017-05-11T04:32:07.553Z,1920
2017-05-11T04:33:21.277Z,1944
2017-05-11T04:34:34.999Z,1964
2017-05-11T04:35:48.729Z,1992
2017-05-11T04:37:02.671Z,2032
2017-05-11T04:38:16.408Z,2060
2017-05-11T04:39:30.129Z,2088
2017-05-11T04:40:43.859Z,2112
2017-05-11T04:41:56.314Z,2144
2017-05-11T04:43:10.233Z,2188
2017-05-11T04:44:24.006Z,2220
2017-05-11T04:45:37.719Z,2260
2017-05-11T04:46:50.154Z,2288
2017-05-11T04:48:04.095Z,2312
2017-05-11T04:49:17.833Z,2344
2017-05-11T04:50:31.664Z,2372
2017-05-11T04:51:44.104Z,2400
2017-05-11T04:52:55.261Z,2440
2017-05-11T04:54:07.891Z,2492
2017-05-11T04:55:21.622Z,2532
2017-05-11T04:56:35.436Z,2600
2017-05-11T04:57:49.204Z,2644
2017-05-11T04:59:03.142Z,2684
2017-05-11T05:00:16.903Z,2692
2017-05-11T05:01:30.634Z,2744
2017-05-11T05:02:44.369Z,2804
2017-05-11T05:03:58.351Z,2852
2017-05-11T05:05:12.320Z,2884
2017-05-11T05:06:24.773Z,2900
2017-05-11T05:07:37.290Z,2948
2017-05-11T05:08:49.787Z,2944
2017-05-11T05:10:02.213Z,2972
2017-05-11T05:11:16.157Z,2972
2017-05-11T05:12:29.879Z,3020
2017-05-11T05:13:42.396Z,2960
2017-05-11T05:14:56.122Z,3020
2017-05-11T05:16:10.074Z,3176
2017-05-11T05:17:22.498Z,3244
2017-05-11T05:18:36.236Z,3280
2017-05-11T05:19:48.728Z,3332
2017-05-11T05:21:01.236Z,3368
2017-05-11T05:22:15.148Z,3436
2017-05-11T05:23:28.904Z,3488
2017-05-11T05:24:42.686Z,3524
2017-05-11T05:25:56.639Z,3568
2017-05-11T05:27:10.565Z,3628
2017-05-11T05:28:24.303Z,3692
2017-05-11T05:29:36.742Z,3720
2017-05-11T05:30:50.464Z,3720
2017-05-11T05:32:04.470Z,3768
2017-05-11T05:33:15.731Z,3848
2017-05-11T05:34:29.473Z,3900
2017-05-11T05:35:43.506Z,3932
2017-05-11T05:36:57.224Z,3984
2017-05-11T05:38:11.236Z,4028
2017-05-11T05:39:24.974Z,4092
2017-05-11T05:40:38.698Z,4108
2017-05-11T05:41:51.148Z,4140
2017-05-11T05:43:02.301Z,4108
2017-05-11T05:44:16.238Z,4136
2017-05-11T05:45:30.056Z,3944
2017-05-11T05:46:43.790Z,3780
2017-05-11T05:47:57.531Z,4180
2017-05-11T05:49:11.511Z,4364
2017-05-11T05:50:23.940Z,4408
2017-05-11T05:51:37.797Z,4236
2017-05-11T05:52:51.521Z,4448
2017-05-11T05:54:05.454Z,4576
2017-05-11T05:55:17.889Z,4600
2017-05-11T05:56:31.609Z,4636
2017-05-11T05:57:45.396Z,4688
2017-05-11T05:58:59.137Z,4708
2017-05-11T06:00:13.168Z,4744
2017-05-11T06:01:27.122Z,4760
2017-05-11T06:02:40.880Z,4752
2017-05-11T06:03:54.615Z,4760
2017-05-11T06:05:08.590Z,4764
2017-05-11T06:06:22.455Z,4768
2017-05-11T06:07:34.906Z,4792
2017-05-11T06:08:48.704Z,4856
2017-05-11T06:10:01.150Z,4740
2017-05-11T06:11:13.885Z,4636
2017-05-11T06:12:27.619Z,4716
2017-05-11T06:13:40.054Z,4676
2017-05-11T06:14:53.791Z,4720
2017-05-11T06:16:07.738Z,4880
2017-05-11T06:17:21.467Z,4852
2017-05-11T06:18:35.223Z,4844
2017-05-11T06:19:48.980Z,4928
2017-05-11T06:21:02.752Z,5016
2017-05-11T06:22:16.730Z,5060
2017-05-11T06:23:27.899Z,5132
2017-05-11T06:24:41.621Z,5196
2017-05-11T06:25:54.060Z,5228
2017-05-11T06:27:07.878Z,5264
2017-05-11T06:28:22.099Z,5288
2017-05-11T06:29:35.898Z,5324
2017-05-11T06:30:49.669Z,5360
2017-05-11T06:32:03.398Z,5392
2017-05-11T06:33:17.339Z,5416
2017-05-11T06:34:29.773Z,5444
2017-05-11T06:35:43.546Z,5480
2017-05-11T06:36:55.994Z,5512
2017-05-11T06:38:09.728Z,5544
2017-05-11T06:39:21.147Z,5572
2017-05-11T06:40:33.618Z,5600
2017-05-11T06:41:47.366Z,5620
2017-05-11T06:43:01.323Z,5652
2017-05-11T06:44:15.330Z,5684
2017-05-11T06:45:27.760Z,5712
2017-05-11T06:46:41.524Z,5732
2017-05-11T06:47:55.289Z,5784
2017-05-11T06:49:07.737Z,5836
2017-05-11T06:50:20.381Z,5880
2017-05-11T06:51:30.258Z,5948
2017-05-11T06:52:42.711Z,5960
2017-05-11T06:53:55.183Z,6000
2017-05-11T06:55:09.199Z,6036
2017-05-11T06:56:21.648Z,6056
2017-05-11T06:57:35.383Z,6092
2017-05-11T06:58:47.939Z,6124
2017-05-11T07:00:01.690Z,6148
2017-05-11T07:01:15.660Z,6172
2017-05-11T07:02:29.419Z,6224
2017-05-11T07:03:43.167Z,6272
2017-05-11T07:04:56.913Z,6316
2017-05-11T07:06:08.269Z,6360
2017-05-11T07:07:20.724Z,6396
2017-05-11T07:08:34.474Z,6436
2017-05-11T07:09:46.919Z,6460
2017-05-11T07:10:59.354Z,6484
2017-05-11T07:12:11.992Z,6532
2017-05-11T07:13:25.752Z,6576
2017-05-11T07:14:38.183Z,6608
2017-05-11T07:15:50.662Z,6644
2017-05-11T07:17:04.637Z,6680
2017-05-11T07:18:17.103Z,6712
2017-05-11T07:19:30.828Z,6768
2017-05-11T07:20:44.551Z,6812
2017-05-11T07:21:58.503Z,6872
2017-05-11T07:23:10.935Z,6924
2017-05-11T07:24:24.886Z,6968
2017-05-11T07:25:38.610Z,7032
2017-05-11T07:26:52.369Z,7088
2017-05-11T07:28:06.310Z,7140
2017-05-11T07:29:17.678Z,7200
2017-05-11T07:30:30.118Z,7256
2017-05-11T07:31:42.789Z,7332
2017-05-11T07:32:55.237Z,7400
2017-05-11T07:34:09.171Z,7476
2017-05-11T07:35:21.651Z,7552
2017-05-11T07:36:35.412Z,7640
2017-05-11T07:37:47.858Z,7712
2017-05-11T07:39:00.303Z,7788
2017-05-11T07:40:14.263Z,7868
2017-05-11T07:41:28.036Z,7944
2017-05-11T07:42:41.776Z,8044
2017-05-11T07:43:55.538Z,8152
2017-05-11T07:45:09.466Z,8264
2017-05-11T07:46:23.204Z,8344
2017-05-11T07:47:36.990Z,8448
2017-05-11T07:48:50.942Z,8516
2017-05-11T07:50:04.890Z,8616
2017-05-11T07:51:18.628Z,8728
2017-05-11T07:52:32.361Z,8824
2017-05-11T07:53:46.314Z,8920
2017-05-11T07:55:00.049Z,8992
2017-05-11T07:56:12.691Z,9036
2017-05-11T07:57:25.194Z,9100
2017-05-11T07:58:38.933Z,9168
2017-05-11T07:59:52.672Z,9252
2017-05-11T08:01:06.600Z,9316
2017-05-11T08:02:20.373Z,9356
2017-05-11T08:03:34.098Z,9388
2017-05-11T08:04:48.163Z,9452
2017-05-11T08:06:03.487Z,9564
2017-05-11T08:07:19.098Z,9644
2017-05-11T08:08:34.488Z,9728
2017-05-11T08:09:48.431Z,9760
2017-05-11T08:11:01.274Z,9812
2017-05-11T08:12:16.809Z,9860
2017-05-11T08:13:32.179Z,9904
2017-05-11T08:14:47.520Z,9988
2017-05-11T08:16:01.600Z,10048
2017-05-11T08:17:15.912Z,10112
2017-05-11T08:18:31.284Z,10196
2017-05-11T08:19:46.757Z,10276
2017-05-11T08:21:02.113Z,10676
2017-05-11T08:22:17.916Z,11632
2017-05-11T08:23:31.963Z,12836
2017-05-11T08:24:44.722Z,13988
2017-05-11T08:25:57.734Z,15116
2017-05-11T08:27:13.282Z,15996
2017-05-11T08:28:28.635Z,16800
2017-05-11T08:29:43.986Z,20192
2017-05-11T08:30:59.320Z,49856
2017-05-11T08:32:12.316Z,69312
2017-05-11T08:33:27.666Z,59040
2017-05-11T08:34:41.613Z,69248
2017-05-11T08:35:55.329Z,74496
2017-05-11T08:37:10.686Z,61792
2017-05-11T08:38:24.930Z,77664
2017-05-11T08:39:40.311Z,68832
2017-05-11T08:40:56.223Z,77088
2017-05-11T08:42:11.592Z,67840
2017-05-11T08:43:27.157Z,64768
2017-05-11T08:44:42.550Z,76544
2017-05-11T08:45:57.933Z,73888
2017-05-11T08:47:12.055Z,66432
2017-05-11T08:48:25.957Z,83712
2017-05-11T08:49:41.314Z,96128
2017-05-11T08:50:56.890Z,68000
2017-05-11T08:52:12.236Z,55520
2017-05-11T08:53:27.790Z,80832
2017-05-11T08:54:43.156Z,85952
2017-05-11T08:55:58.523Z,75904
2017-05-11T08:57:13.897Z,90304
2017-05-11T08:58:29.667Z,76320
2017-05-11T08:59:42.467Z,58464
2017-05-11T09:00:56.524Z,91968
2017-05-11T09:02:11.875Z,90560
2017-05-11T09:03:27.475Z,69280
2017-05-11T09:04:40.245Z,84192
2017-05-11T09:05:55.607Z,89952
2017-05-11T09:07:10.964Z,88096
2017-05-11T09:08:26.545Z,76576
2017-05-11T09:09:40.589Z,65600
2017-05-11T09:10:54.671Z,70976
2017-05-11T09:12:10.108Z,75936
2017-05-11T09:13:24.300Z,82560
2017-05-11T09:14:39.879Z,93856
2017-05-11T09:15:55.247Z,81472
2017-05-11T09:17:10.602Z,74272
2017-05-11T09:18:26.192Z,90080
2017-05-11T09:19:40.268Z,83520
2017-05-11T09:20:54.405Z,89632
2017-05-11T09:22:08.502Z,89952
2017-05-11T09:23:24.081Z,80000
2017-05-11T09:24:39.438Z,84384
2017-05-11T09:25:52.101Z,98176
2017-05-11T09:27:07.692Z,101952
2017-05-11T09:28:23.121Z,87328
2017-05-11T09:29:38.674Z,74816
2017-05-11T09:30:50.052Z,84768
2017-05-11T09:32:05.464Z,91936
2017-05-11T09:33:21.002Z,83296
2017-05-11T09:34:35.182Z,81088
2017-05-11T09:35:46.534Z,83328
2017-05-11T09:37:01.908Z,80704
2017-05-11T09:38:15.999Z,75552
2017-05-11T09:39:31.682Z,81024
2017-05-11T09:40:45.808Z,103904
2017-05-11T09:41:59.883Z,101984
2017-05-11T09:43:15.323Z,84640
2017-05-11T09:44:31.064Z,96512
2017-05-11T09:45:43.951Z,109984
2017-05-11T09:46:59.688Z,92640
2017-05-11T09:48:15.078Z,66464
2017-05-11T09:49:30.450Z,91712
2017-05-11T09:50:46.062Z,118912
2017-05-11T09:52:00.140Z,105024
2017-05-11T09:53:14.243Z,98784
2017-05-11T09:54:29.626Z,96832
2017-05-11T09:55:45.280Z,83072
2017-05-11T09:56:59.342Z,80448
2017-05-11T09:58:14.719Z,103200
2017-05-11T09:59:26.076Z,111392
2017-05-11T10:00:40.525Z,103616
2017-05-11T10:01:55.922Z,102976
2017-05-11T10:03:09.882Z,104576
2017-05-11T10:04:25.281Z,107776
2017-05-11T10:05:40.466Z,103808
2017-05-11T10:06:54.664Z,107456
2017-05-11T10:08:07.336Z,134880
2017-05-11T10:09:21.451Z,125792
2017-05-11T10:10:37.057Z,96032
2017-05-11T10:11:51.196Z,108608
2017-05-11T10:13:05.277Z,117024
2017-05-11T10:14:50.074Z,116448
2017-05-11T10:16:05.646Z,126368
2017-05-11T10:17:19.640Z,108928
2017-05-11T10:18:35.297Z,98848
2017-05-11T10:19:50.687Z,117792
2017-05-11T10:21:05.081Z,109952
2017-05-11T10:22:20.599Z,83360
2017-05-11T10:23:34.692Z,100096
2017-05-11T10:24:48.760Z,117856
2017-05-11T10:26:01.691Z,111552
2017-05-11T10:27:17.099Z,114304
2017-05-11T10:28:32.461Z,117344
2017-05-11T10:29:46.748Z,101696
2017-05-11T10:31:02.418Z,94880
2017-05-11T10:32:16.504Z,100736
2017-05-11T10:33:30.488Z,101184
2017-05-11T10:34:45.853Z,99936
2017-05-11T10:36:00.069Z,114272
2017-05-11T10:37:15.426Z,128224
2017-05-11T10:38:29.530Z,126336
2017-05-11T10:39:45.185Z,106464
2017-05-11T10:40:57.978Z,89440
2017-05-11T10:42:13.598Z,99616
2017-05-11T10:43:29.018Z,91840
2017-05-11T10:44:43.108Z,86176
2017-05-11T10:45:57.056Z,120224
2017-05-11T10:47:12.806Z,141952
2017-05-11T10:48:26.883Z,103360
2017-05-11T10:49:42.264Z,93056
2017-05-11T10:50:56.345Z,121504
2017-05-11T10:52:10.661Z,122432
2017-05-11T10:53:22.046Z,97568
2017-05-11T10:54:37.441Z,98336
2017-05-11T10:55:51.563Z,114624
2017-05-11T10:57:07.189Z,115968
2017-05-11T10:58:22.598Z,112512
2017-05-11T11:00:08.818Z,110944
2017-05-11T11:01:22.769Z,120864
2017-05-11T11:02:38.409Z,117440
2017-05-11T11:03:54.112Z,118464
2017-05-11T11:05:08.216Z,111584
2017-05-11T11:06:23.649Z,97056
2017-05-11T11:07:37.843Z,101728
2017-05-11T11:08:52.957Z,118720
2017-05-11T11:10:08.321Z,121568
2017-05-11T11:11:23.709Z,102592
2017-05-11T11:12:37.864Z,105344
2017-05-11T11:13:53.264Z,135584
2017-05-11T11:15:06.973Z,133920
2017-05-11T11:16:21.114Z,114464
2017-05-11T11:17:36.668Z,109568
2017-05-11T11:18:49.462Z,114112
2017-05-11T11:20:03.592Z,129952
2017-05-11T11:21:19.018Z,130144
2017-05-11T11:22:33.352Z,109248
2017-05-11T11:23:48.874Z,112128
2017-05-11T11:25:02.834Z,128416
2017-05-11T11:26:16.967Z,118144
2017-05-11T11:27:32.535Z,114144
2017-05-11T11:28:48.015Z,127168
2017-05-11T11:30:03.403Z,120736
2017-05-11T11:31:18.812Z,121920
2017-05-11T11:32:34.392Z,120032
2017-05-11T11:33:50.040Z,93376
2017-05-11T11:35:04.127Z,101280
2017-05-11T11:36:18.209Z,128224
2017-05-11T11:37:32.303Z,114656
2017-05-11T11:38:46.601Z,91872
2017-05-11T11:40:02.017Z,104480
2017-05-11T11:41:15.959Z,130304
2017-05-11T11:42:31.321Z,128288
2017-05-11T11:43:46.971Z,99872
2017-05-11T11:45:02.375Z,97728
2017-05-11T11:46:17.785Z,117312
2017-05-11T11:47:31.900Z,118368
2017-05-11T11:48:47.730Z,103776
2017-05-11T11:50:03.149Z,95552
2017-05-11T11:51:18.539Z,98976
2017-05-11T11:52:30.050Z,102720
2017-05-11T11:53:43.294Z,106272
2017-05-11T11:54:57.260Z,102528
2017-05-11T11:56:12.659Z,92128
2017-05-11T11:57:28.047Z,91712
2017-05-11T11:58:43.691Z,106720
2017-05-11T11:59:57.775Z,121248
2017-05-11T12:01:13.181Z,112288
2017-05-11T12:02:28.554Z,94624
2017-05-11T12:03:44.122Z,103584
2017-05-11T12:04:58.262Z,122240
2017-05-11T12:06:13.683Z,118816
2017-05-11T12:07:29.064Z,92384
2017-05-11T12:08:43.439Z,82784
2017-05-11T12:09:57.651Z,105856
2017-05-11T12:11:13.117Z,125280
2017-05-11T12:12:27.213Z,117984
2017-05-11T12:13:42.645Z,97504
2017-05-11T12:14:57.003Z,103520
2017-05-11T12:16:12.358Z,106720
2017-05-11T12:17:57.190Z,78144
2017-05-11T12:19:13.020Z,79392
2017-05-11T12:20:28.380Z,125728
2017-05-11T12:21:43.817Z,146752
2017-05-11T12:22:59.329Z,111136
2017-05-11T12:24:15.044Z,71552
2017-05-11T12:25:30.473Z,75328
2017-05-11T12:26:44.564Z,101600
2017-05-11T12:27:55.933Z,111392
2017-05-11T12:29:10.089Z,104000
2017-05-11T12:30:25.483Z,112448
2017-05-11T12:31:39.549Z,130496
2017-05-11T12:32:54.945Z,136096
2017-05-11T12:34:10.574Z,102304
2017-05-11T12:35:24.668Z,50176
2017-05-11T12:36:40.164Z,41696
2017-05-11T12:37:55.657Z,95424
2017-05-11T12:39:09.985Z,132160
2017-05-11T12:40:22.649Z,123648
2017-05-11T12:41:38.281Z,116992
2017-05-11T12:42:52.354Z,120832
2017-05-11T12:44:08.299Z,110560
2017-05-11T12:45:23.730Z,85184
2017-05-11T12:46:37.818Z,84672
2017-05-11T12:47:53.198Z,99072
2017-05-11T12:49:08.787Z,91264
2017-05-11T12:50:21.588Z,78400
2017-05-11T12:51:36.968Z,93312
2017-05-11T12:52:52.370Z,124608
2017-05-11T12:54:06.673Z,114240
2017-05-11T12:55:22.443Z,72224
2017-05-11T12:56:36.385Z,81664
2017-05-11T12:57:50.460Z,116032
2017-05-11T12:59:05.490Z,102912
2017-05-11T13:00:19.686Z,78592
2017-05-11T13:01:35.068Z,99584
2017-05-11T13:02:49.150Z,123264
2017-05-11T13:04:04.640Z,105952
2017-05-11T13:05:20.229Z,96960
2017-05-11T13:06:35.234Z,99040
2017-05-11T13:07:49.307Z,101952
2017-05-11T13:09:04.722Z,107424
2017-05-11T13:10:19.083Z,111808
2017-05-11T13:11:34.470Z,106432
2017-05-11T13:12:48.612Z,105408
2017-05-11T13:14:04.141Z,112576
2017-05-11T13:15:19.722Z,119328
2017-05-11T13:16:35.112Z,121376
2017-05-11T13:17:48.002Z,112416
2017-05-11T13:19:34.238Z,81248
2017-05-11T13:20:48.598Z,78464
2017-05-11T13:22:04.074Z,84736
2017-05-11T13:23:19.474Z,88832
2017-05-11T13:24:33.422Z,89184
2017-05-11T13:25:47.431Z,91456
2017-05-11T13:27:02.840Z,103264
2017-05-11T13:28:18.244Z,92544
2017-05-11T13:29:32.351Z,59200
2017-05-11T13:30:46.795Z,59040
2017-05-11T13:32:00.886Z,85408
2017-05-11T13:33:16.250Z,86656
2017-05-11T13:34:31.637Z,65056
2017-05-11T13:35:44.487Z,72576
2017-05-11T13:37:00.259Z,97152
2017-05-11T13:38:14.345Z,105856
2017-05-11T13:39:29.705Z,83392
2017-05-11T13:40:42.409Z,53344
2017-05-11T13:41:57.965Z,52992
2017-05-11T13:43:10.818Z,90656
2017-05-11T13:44:26.242Z,101472
2017-05-11T13:45:41.848Z,53696
2017-05-11T13:46:57.490Z,34784
2017-05-11T13:48:12.865Z,80000
2017-05-11T13:49:25.611Z,115072
2017-05-11T13:50:41.067Z,99392
2017-05-11T13:51:55.242Z,78304
2017-05-11T13:53:09.316Z,76224
2017-05-11T13:54:23.292Z,77440
2017-05-11T13:55:38.676Z,80320
2017-05-11T13:56:54.373Z,81888
2017-05-11T13:58:09.765Z,73824
2017-05-11T13:59:23.761Z,62112
2017-05-11T14:00:37.848Z,57024
2017-05-11T14:01:53.254Z,74592
2017-05-11T14:03:07.225Z,102176
2017-05-11T14:04:21.328Z,108288
2017-05-11T14:05:36.719Z,87936
2017-05-11T14:06:52.195Z,80544
2017-05-11T14:08:07.752Z,84704
2017-05-11T14:09:23.002Z,79776
2017-05-11T14:10:38.756Z,66976
2017-05-11T14:11:54.161Z,54208
2017-05-11T14:13:09.751Z,49568
2017-05-11T14:14:25.103Z,62336
2017-05-11T14:15:37.881Z,71584
2017-05-11T14:16:51.864Z,68672
2017-05-11T14:18:06.196Z,69920
2017-05-11T14:19:18.999Z,84768
2017-05-11T14:20:31.739Z,91328
2017-05-11T14:21:47.104Z,82688
2017-05-11T14:23:01.368Z,68672
2017-05-11T14:24:15.099Z,54304
2017-05-11T14:25:30.501Z,58848
2017-05-11T14:26:44.487Z,74432
2017-05-11T14:27:58.567Z,70592
2017-05-11T14:29:12.875Z,55328
2017-05-11T14:30:26.980Z,61280
2017-05-11T14:31:42.702Z,67936
2017-05-11T14:32:58.066Z,68704
2017-05-11T14:34:13.628Z,81728
2017-05-11T14:35:27.731Z,88640
2017-05-11T14:36:43.171Z,75392
2017-05-11T14:37:58.539Z,61184
2017-05-11T14:39:14.257Z,63552
2017-05-11T14:40:29.624Z,83328
2017-05-11T14:41:45.234Z,86144
2017-05-11T14:43:00.650Z,65312
2017-05-11T14:44:14.970Z,52736
2017-05-11T14:45:30.423Z,67136
2017-05-11T14:46:44.538Z,86464
2017-05-11T14:48:00.121Z,69696
2017-05-11T14:49:14.415Z,56992
2017-05-11T14:50:29.808Z,64096
2017-05-11T14:51:45.408Z,53344
2017-05-11T14:52:59.400Z,61280
2017-05-11T14:54:14.967Z,69728
2017-05-11T14:55:30.329Z,41440
2017-05-11T14:56:45.679Z,39200
2017-05-11T14:58:01.106Z,60608
2017-05-11T14:59:16.841Z,53664
2017-05-11T15:00:32.451Z,41344
2017-05-11T15:01:47.899Z,62912
2017-05-11T15:03:00.682Z,78816
2017-05-11T15:04:16.255Z,58208
2017-05-11T15:05:31.642Z,50304
2017-05-11T15:06:47.033Z,60960
2017-05-11T15:08:02.416Z,60640
2017-05-11T15:09:18.341Z,54240
2017-05-11T15:10:33.747Z,56000
2017-05-11T15:11:47.843Z,46496
2017-05-11T15:13:03.462Z,47648
2017-05-11T15:14:17.745Z,40736
2017-05-11T15:15:33.158Z,14396
2017-05-11T15:16:48.534Z,12152
2017-05-11T15:18:03.903Z,11576
2017-05-11T15:19:19.606Z,11548
2017-05-11T15:20:34.682Z,12508
2017-05-11T15:21:48.624Z,13244
2017-05-11T15:23:02.749Z,12680
2017-05-11T15:24:18.315Z,13516
2017-05-11T15:25:33.729Z,13020
2017-05-11T15:26:48.257Z,13044
2017-05-11T15:28:03.627Z,13604
2017-05-11T15:29:19.524Z,13240
2017-05-11T15:30:33.981Z,12668
2017-05-11T15:31:49.551Z,12444
2017-05-11T15:33:03.647Z,13048
2017-05-11T15:34:19.025Z,12624
2017-05-11T15:35:34.653Z,14072
2017-05-11T15:36:50.000Z,14176
2017-05-11T15:38:05.491Z,13568
2017-05-11T15:39:19.611Z,12716
2017-05-11T15:40:35.193Z,12036
2017-05-11T15:41:50.634Z,11464
2017-05-11T15:43:06.016Z,11152
2017-05-11T15:44:21.375Z,10912
2017-05-11T15:45:36.993Z,10776
2017-05-11T15:46:52.407Z,10704
2017-05-11T15:48:07.784Z,10724
2017-05-11T15:49:23.242Z,10704
2017-05-11T15:50:38.855Z,10528
2017-05-11T15:51:54.342Z,10340
2017-05-11T15:53:09.692Z,10192
2017-05-11T15:54:25.085Z,10092
2017-05-11T15:55:40.800Z,10016
2017-05-11T15:56:54.750Z,10052
2017-05-11T15:58:10.107Z,10068
2017-05-11T15:59:24.180Z,10120
2017-05-11T16:00:38.471Z,10136
2017-05-11T16:01:53.826Z,9944
2017-05-11T16:03:07.960Z,9680
2017-05-11T16:04:21.999Z,9144
2017-05-11T16:05:37.587Z,8708
2017-05-11T16:06:50.239Z,8584
2017-05-11T16:08:05.615Z,7724
2017-05-11T16:09:21.064Z,7356
2017-05-11T16:10:36.713Z,7424
2017-05-11T16:11:49.365Z,7948
2017-05-11T16:13:04.781Z,7676
2017-05-11T16:14:18.875Z,7936
2017-05-11T16:15:34.656Z,8120
2017-05-11T16:16:50.025Z,7968
2017-05-11T16:18:05.090Z,7536
2017-05-11T16:19:19.272Z,6336
2017-05-11T16:20:34.645Z,6288
2017-05-11T16:21:50.214Z,6784
2017-05-11T16:23:04.529Z,6404
2017-05-11T16:24:19.870Z,6260
2017-05-11T16:25:35.505Z,6308
2017-05-11T16:26:49.782Z,6172
2017-05-11T16:28:05.163Z,5836
2017-05-11T16:29:20.541Z,5440